Terminal Aerodrome Forecast
Issued by NWS

Home | Current Version | Previous Version | Text Only | Print | Product List | Glossary On
Versions: 1 2 3 4 5 6 7 8 9 10 11 12 13 14 15 16 17 18 19 20 21 22 23 24 25 26
000
FTUS45 KCYS 191737
TAFLAR
TAF
KLAR 191737Z 1918/2018 22010KT P6SM BKN120
     FM192000 25014KT P6SM BKN100 OVC150
     FM200000 27015KT 6SM -RASN BKN040 OVC080
     FM200600 28020G28KT P6SM SCT200=

USA.gov is the U.S. government's official web portal to all federal, state and local government web resources and services.